sensor_id;sensor_type;location;lat;lon;timestamp;temperature;humidity
18041;DHT22;9145;48.588;9.250;2023-08-01T00:00:44;18.30;99.90
18041;DHT22;9145;48.588;9.250;2023-08-01T00:03:10;18.40;99.90
18041;DHT22;9145;48.588;9.250;2023-08-01T00:05:39;18.40;99.90
18041;DHT22;9145;48.588;9.250;2023-08-01T00:08:10;18.50;99.90
18041;DHT22;9145;48.588;9.250;2023-08-01T00:10:37;18.50;99.90
18041;DHT22;9145;48.588;9.250;2023-08-01T00:13:04;18.60;99.90
18041;DHT22;9145;48.588;9.250;2023-08-01T00:15:32;18.60;99.90
18041;DHT22;9145;48.588;9.250;2023-08-01T00:17:59;18.70;99.90
18041;DHT22;9145;48.588;9.250;2023-08-01T00:20:26;18.70;99.90
18041;DHT22;9145;48.588;9.250;2023-08-01T00:22:53;18.70;99.90
18041;DHT22;9145;48.588;9.250;2023-08-01T00:25:20;18.70;99.90
18041;DHT22;9145;48.588;9.250;2023-08-01T00:27:47;18.70;99.90
18041;DHT22;9145;48.588;9.250;2023-08-01T00:30:13;18.70;99.90
18041;DHT22;9145;48.588;9.250;2023-08-01T00:32:42;18.70;99.90
18041;DHT22;9145;48.588;9.250;2023-08-01T00:35:09;18.70;99.90
18041;DHT22;9145;48.588;9.250;2023-08-01T00:37:36;18.70;99.90
18041;DHT22;9145;48.588;9.250;2023-08-01T00:40:04;18.70;99.90
18041;DHT22;9145;48.588;9.250;2023-08-01T00:42:31;18.70;99.90
18041;DHT22;9145;48.588;9.250;2023-08-01T00:44:58;18.70;99.90
18041;DHT22;9145;48.588;9.250;2023-08-01T00:47:26;18.70;99.90
18041;DHT22;9145;48.588;9.250;2023-08-01T00:49:54;18.70;99.90
18041;DHT22;9145;48.588;9.250;2023-08-01T00:52:21;18.70;99.90
18041;DHT22;9145;48.588;9.250;2023-08-01T00:54:48;18.70;99.90
18041;DHT22;9145;48.588;9.250;2023-08-01T00:57:15;18.80;99.90
18041;DHT22;9145;48.588;9.250;2023-08-01T00:59:42;18.80;99.90
18041;DHT22;9145;48.588;9.250;2023-08-01T01:02:09;18.80;99.90
18041;DHT22;9145;48.588;9.250;2023-08-01T01:04:37;18.80;99.90
18041;DHT22;9145;48.588;9.250;2023-08-01T01:07:06;18.80;99.90
18041;DHT22;9145;48.588;9.250;2023-08-01T01:09:33;18.80;99.90
18041;DHT22;9145;48.588;9.250;2023-08-01T01:12:00;18.80;99.90
18041;DHT22;9145;48.588;9.250;2023-08-01T01:14:27;18.70;99.90
18041;DHT22;9145;48.588;9.250;2023-08-01T01:16:54;18.70;99.90
18041;DHT22;9145;48.588;9.250;2023-08-01T01:19:21;18.70;99.90
18041;DHT22;9145;48.588;9.250;2023-08-01T01:21:50;18.70;99.90
18041;DHT22;9145;48.588;9.250;2023-08-01T01:24:18;18.70;99.90
18041;DHT22;9145;48.588;9.250;2023-08-01T01:26:46;18.80;99.90
18041;DHT22;9145;48.588;9.250;2023-08-01T01:29:14;18.80;99.90
18041;DHT22;9145;48.588;9.250;2023-08-01T01:31:42;18.80;99.90
18041;DHT22;9145;48.588;9.250;2023-08-01T01:34:11;18.80;99.90
18041;DHT22;9145;48.588;9.250;2023-08-01T01:36:38;18.80;99.90
18041;DHT22;9145;48.588;9.250;2023-08-01T01:39:07;18.90;99.90
18041;DHT22;9145;48.588;9.250;2023-08-01T01:41:33;18.80;99.90
18041;DHT22;9145;48.588;9.250;2023-08-01T01:44:00;18.80;99.90
18041;DHT22;9145;48.588;9.250;2023-08-01T01:46:27;18.80;99.90
18041;DHT22;9145;48.588;9.250;2023-08-01T01:48:54;18.80;99.90
18041;DHT22;9145;48.588;9.250;2023-08-01T01:51:21;18.80;99.90
18041;DHT22;9145;48.588;9.250;2023-08-01T01:53:48;18.80;99.90
18041;DHT22;9145;48.588;9.250;2023-08-01T01:56:16;18.80;99.90
18041;DHT22;9145;48.588;9.250;2023-08-01T01:58:43;18.80;99.90
18041;DHT22;9145;48.588;9.250;2023-08-01T02:01:10;18.90;99.90
18041;DHT22;9145;48.588;9.250;2023-08-01T02:03:36;18.90;99.90
18041;DHT22;9145;48.588;9.250;2023-08-01T02:06:03;19.00;99.90
18041;DHT22;9145;48.588;9.250;2023-08-01T02:08:30;19.00;99.90
18041;DHT22;9145;48.588;9.250;2023-08-01T02:10:57;19.10;99.90
18041;DHT22;9145;48.588;9.250;2023-08-01T02:13:26;19.10;99.90
18041;DHT22;9145;48.588;9.250;2023-08-01T02:15:53;19.10;99.90
18041;DHT22;9145;48.588;9.250;2023-08-01T02:18:20;19.20;99.90
18041;DHT22;9145;48.588;9.250;2023-08-01T02:20:47;19.20;99.90
18041;DHT22;9145;48.588;9.250;2023-08-01T02:23:13;19.20;99.90
18041;DHT22;9145;48.588;9.250;2023-08-01T02:25:40;19.20;99.90
18041;DHT22;9145;48.588;9.250;2023-08-01T02:28:08;19.20;99.90
18041;DHT22;9145;48.588;9.250;2023-08-01T02:30:36;19.20;99.90
18041;DHT22;9145;48.588;9.250;2023-08-01T02:33:03;19.20;99.90
18041;DHT22;9145;48.588;9.250;2023-08-01T02:35:30;19.20;99.90
18041;DHT22;9145;48.588;9.250;2023-08-01T02:37:57;19.30;99.90
18041;DHT22;9145;48.588;9.250;2023-08-01T02:40:24;19.20;99.90
18041;DHT22;9145;48.588;9.250;2023-08-01T02:42:52;19.20;99.90
18041;DHT22;9145;48.588;9.250;2023-08-01T02:45:19;19.30;99.90
18041;DHT22;9145;48.588;9.250;2023-08-01T02:47:47;19.30;99.90
18041;DHT22;9145;48.588;9.250;2023-08-01T02:50:14;19.30;99.90
18041;DHT22;9145;48.588;9.250;2023-08-01T02:52:41;19.30;99.90
18041;DHT22;9145;48.588;9.250;2023-08-01T02:55:08;19.40;99.90
18041;DHT22;9145;48.588;9.250;2023-08-01T02:57:35;19.40;99.90
18041;DHT22;9145;48.588;9.250;2023-08-01T03:00:02;19.50;99.90
18041;DHT22;9145;48.588;9.250;2023-08-01T03:02:31;19.50;99.90
18041;DHT22;9145;48.588;9.250;2023-08-01T03:04:59;19.50;99.90
18041;DHT22;9145;48.588;9.250;2023-08-01T03:07:26;19.50;99.90
18041;DHT22;9145;48.588;9.250;2023-08-01T03:09:52;19.50;99.90
18041;DHT22;9145;48.588;9.250;2023-08-01T03:12:20;19.50;99.90
18041;DHT22;9145;48.588;9.250;2023-08-01T03:14:47;19.50;99.90
18041;DHT22;9145;48.588;9.250;2023-08-01T03:17:14;19.50;99.90
18041;DHT22;9145;48.588;9.250;2023-08-01T03:19:41;19.50;99.90
18041;DHT22;9145;48.588;9.250;2023-08-01T03:22:09;19.50;99.90
18041;DHT22;9145;48.588;9.250;2023-08-01T03:24:36;19.50;99.90
18041;DHT22;9145;48.588;9.250;2023-08-01T03:27:04;19.60;99.90
18041;DHT22;9145;48.588;9.250;2023-08-01T03:29:31;19.60;99.90
18041;DHT22;9145;48.588;9.250;2023-08-01T03:31:57;19.60;99.90
18041;DHT22;9145;48.588;9.250;2023-08-01T03:34:24;19.60;99.90
18041;DHT22;9145;48.588;9.250;2023-08-01T03:36:52;19.60;99.90
18041;DHT22;9145;48.588;9.250;2023-08-01T03:39:20;19.50;99.90
18041;DHT22;9145;48.588;9.250;2023-08-01T03:41:47;19.50;99.90
18041;DHT22;9145;48.588;9.250;2023-08-01T03:44:14;19.50;99.90
18041;DHT22;9145;48.588;9.250;2023-08-01T03:46:42;19.50;99.90
18041;DHT22;9145;48.588;9.250;2023-08-01T03:49:09;19.50;99.90
18041;DHT22;9145;48.588;9.250;2023-08-01T03:51:36;19.50;99.90
18041;DHT22;9145;48.588;9.250;2023-08-01T03:54:02;19.50;99.90
18041;DHT22;9145;48.588;9.250;2023-08-01T03:56:31;19.50;99.90
18041;DHT22;9145;48.588;9.250;2023-08-01T03:58:57;19.50;99.90
18041;DHT22;9145;48.588;9.250;2023-08-01T04:01:24;19.50;99.90
18041;DHT22;9145;48.588;9.250;2023-08-01T04:03:51;19.50;99.90
18041;DHT22;9145;48.588;9.250;2023-08-01T04:06:18;19.50;99.90
18041;DHT22;9145;48.588;9.250;2023-08-01T04:08:44;19.40;99.90
18041;DHT22;9145;48.588;9.250;2023-08-01T04:11:11;19.40;99.90
18041;DHT22;9145;48.588;9.250;2023-08-01T04:13:39;19.40;99.90
18041;DHT22;9145;48.588;9.250;2023-08-01T04:16:06;19.40;99.90
18041;DHT22;9145;48.588;9.250;2023-08-01T04:18:33;19.30;99.90
18041;DHT22;9145;48.588;9.250;2023-08-01T04:21:00;19.40;99.90
18041;DHT22;9145;48.588;9.250;2023-08-01T04:23:26;19.30;99.90
18041;DHT22;9145;48.588;9.250;2023-08-01T04:25:53;19.40;99.90
18041;DHT22;9145;48.588;9.250;2023-08-01T04:28:20;19.50;99.90
18041;DHT22;9145;48.588;9.250;2023-08-01T04:30:50;19.50;99.90
18041;DHT22;9145;48.588;9.250;2023-08-01T04:33:17;19.50;99.90
18041;DHT22;9145;48.588;9.250;2023-08-01T04:35:44;19.50;99.90
18041;DHT22;9145;48.588;9.250;2023-08-01T04:38:10;19.50;99.90
18041;DHT22;9145;48.588;9.250;2023-08-01T04:40:37;19.50;99.90
18041;DHT22;9145;48.588;9.250;2023-08-01T04:43:04;19.60;99.90
18041;DHT22;9145;48.588;9.250;2023-08-01T04:45:31;19.60;99.90
18041;DHT22;9145;48.588;9.250;2023-08-01T04:47:59;19.60;99.90
18041;DHT22;9145;48.588;9.250;2023-08-01T04:50:26;19.60;99.90
18041;DHT22;9145;48.588;9.250;2023-08-01T04:52:53;19.60;99.90
18041;DHT22;9145;48.588;9.250;2023-08-01T04:55:19;19.70;99.90
18041;DHT22;9145;48.588;9.250;2023-08-01T04:57:46;19.60;99.90
18041;DHT22;9145;48.588;9.250;2023-08-01T05:00:14;19.60;99.90
18041;DHT22;9145;48.588;9.250;2023-08-01T05:02:40;19.60;99.90
18041;DHT22;9145;48.588;9.250;2023-08-01T05:05:09;19.60;99.90
18041;DHT22;9145;48.588;9.250;2023-08-01T05:07:35;19.60;99.90
18041;DHT22;9145;48.588;9.250;2023-08-01T05:10:03;19.60;99.90
18041;DHT22;9145;48.588;9.250;2023-08-01T05:12:30;19.60;99.90
18041;DHT22;9145;48.588;9.250;2023-08-01T05:14:56;19.60;99.90
18041;DHT22;9145;48.588;9.250;2023-08-01T05:17:23;19.60;99.90
18041;DHT22;9145;48.588;9.250;2023-08-01T05:19:50;19.70;99.90
18041;DHT22;9145;48.588;9.250;2023-08-01T05:22:18;19.70;99.90
18041;DHT22;9145;48.588;9.250;2023-08-01T05:24:45;19.70;99.90
18041;DHT22;9145;48.588;9.250;2023-08-01T05:27:12;19.70;99.90
18041;DHT22;9145;48.588;9.250;2023-08-01T05:29:38;19.70;99.90
18041;DHT22;9145;48.588;9.250;2023-08-01T05:32:06;19.70;99.90
18041;DHT22;9145;48.588;9.250;2023-08-01T05:34:33;19.70;99.90
18041;DHT22;9145;48.588;9.250;2023-08-01T05:36:59;19.70;99.90
18041;DHT22;9145;48.588;9.250;2023-08-01T05:39:28;19.70;99.90
18041;DHT22;9145;48.588;9.250;2023-08-01T05:41:54;19.70;99.90
18041;DHT22;9145;48.588;9.250;2023-08-01T05:44:21;19.60;99.90
18041;DHT22;9145;48.588;9.250;2023-08-01T05:46:48;19.60;99.90
18041;DHT22;9145;48.588;9.250;2023-08-01T05:49:15;19.60;99.90
18041;DHT22;9145;48.588;9.250;2023-08-01T05:51:42;19.70;99.90
18041;DHT22;9145;48.588;9.250;2023-08-01T05:54:08;19.70;99.90
18041;DHT22;9145;48.588;9.250;2023-08-01T05:56:36;19.70;99.90
18041;DHT22;9145;48.588;9.250;2023-08-01T05:59:03;19.70;99.90
18041;DHT22;9145;48.588;9.250;2023-08-01T06:01:30;19.70;99.90
18041;DHT22;9145;48.588;9.250;2023-08-01T06:03:57;19.70;99.90
18041;DHT22;9145;48.588;9.250;2023-08-01T06:06:24;19.80;99.90
18041;DHT22;9145;48.588;9.250;2023-08-01T06:08:50;19.70;99.90
18041;DHT22;9145;48.588;9.250;2023-08-01T06:11:18;19.80;99.90
18041;DHT22;9145;48.588;9.250;2023-08-01T06:13:46;19.80;99.90
18041;DHT22;9145;48.588;9.250;2023-08-01T06:16:12;19.80;99.90
18041;DHT22;9145;48.588;9.250;2023-08-01T06:18:39;19.80;99.90
18041;DHT22;9145;48.588;9.250;2023-08-01T06:21:06;19.80;99.90
18041;DHT22;9145;48.588;9.250;2023-08-01T06:23:33;19.80;99.90
18041;DHT22;9145;48.588;9.250;2023-08-01T06:26:00;19.80;99.90
18041;DHT22;9145;48.588;9.250;2023-08-01T06:28:26;19.70;99.90
18041;DHT22;9145;48.588;9.250;2023-08-01T06:30:54;19.70;99.90
18041;DHT22;9145;48.588;9.250;2023-08-01T06:33:21;19.70;99.90
18041;DHT22;9145;48.588;9.250;2023-08-01T06:35:49;19.70;99.90
18041;DHT22;9145;48.588;9.250;2023-08-01T06:38:16;19.70;99.90
18041;DHT22;9145;48.588;9.250;2023-08-01T06:40:43;19.60;99.90
18041;DHT22;9145;48.588;9.250;2023-08-01T06:43:10;19.60;99.90
18041;DHT22;9145;48.588;9.250;2023-08-01T06:45:36;19.60;99.90
18041;DHT22;9145;48.588;9.250;2023-08-01T06:48:05;19.60;99.90
18041;DHT22;9145;48.588;9.250;2023-08-01T06:50:31;19.50;99.90
18041;DHT22;9145;48.588;9.250;2023-08-01T06:52:58;19.50;99.90
18041;DHT22;9145;48.588;9.250;2023-08-01T06:55:26;19.40;99.90
18041;DHT22;9145;48.588;9.250;2023-08-01T06:57:53;19.40;99.90
18041;DHT22;9145;48.588;9.250;2023-08-01T07:00:20;19.40;99.90
18041;DHT22;9145;48.588;9.250;2023-08-01T07:02:46;19.40;99.90
18041;DHT22;9145;48.588;9.250;2023-08-01T07:05:15;19.40;99.90
18041;DHT22;9145;48.588;9.250;2023-08-01T07:07:41;19.40;99.90
18041;DHT22;9145;48.588;9.250;2023-08-01T07:10:09;19.50;99.90
18041;DHT22;9145;48.588;9.250;2023-08-01T07:12:36;19.50;99.90
18041;DHT22;9145;48.588;9.250;2023-08-01T07:15:03;19.50;99.90
18041;DHT22;9145;48.588;9.250;2023-08-01T07:17:30;19.50;99.90
18041;DHT22;9145;48.588;9.250;2023-08-01T07:19:57;19.50;99.90
18041;DHT22;9145;48.588;9.250;2023-08-01T07:22:25;19.50;99.90
18041;DHT22;9145;48.588;9.250;2023-08-01T07:24:52;19.50;99.90
18041;DHT22;9145;48.588;9.250;2023-08-01T07:27:20;19.50;99.90
18041;DHT22;9145;48.588;9.250;2023-08-01T07:29:47;19.50;99.90
18041;DHT22;9145;48.588;9.250;2023-08-01T07:32:14;19.50;99.90
18041;DHT22;9145;48.588;9.250;2023-08-01T07:34:41;19.60;99.90
18041;DHT22;9145;48.588;9.250;2023-08-01T07:37:07;19.60;99.90
18041;DHT22;9145;48.588;9.250;2023-08-01T07:39:35;19.60;99.90
18041;DHT22;9145;48.588;9.250;2023-08-01T07:42:03;19.60;99.90
18041;DHT22;9145;48.588;9.250;2023-08-01T07:44:31;19.60;99.90
18041;DHT22;9145;48.588;9.250;2023-08-01T07:46:58;19.50;99.90
18041;DHT22;9145;48.588;9.250;2023-08-01T07:49:24;19.40;99.90
18041;DHT22;9145;48.588;9.250;2023-08-01T07:51:51;19.40;99.90
18041;DHT22;9145;48.588;9.250;2023-08-01T07:54:18;19.30;99.90
18041;DHT22;9145;48.588;9.250;2023-08-01T07:56:46;19.20;99.90
18041;DHT22;9145;48.588;9.250;2023-08-01T07:59:14;19.00;99.90
18041;DHT22;9145;48.588;9.250;2023-08-01T08:01:41;18.80;99.90
18041;DHT22;9145;48.588;9.250;2023-08-01T08:04:08;18.60;99.90
18041;DHT22;9145;48.588;9.250;2023-08-01T08:06:35;18.40;99.90
18041;DHT22;9145;48.588;9.250;2023-08-01T08:09:02;18.20;99.90
18041;DHT22;9145;48.588;9.250;2023-08-01T08:11:29;18.00;99.90
18041;DHT22;9145;48.588;9.250;2023-08-01T08:13:57;17.90;99.90
18041;DHT22;9145;48.588;9.250;2023-08-01T08:16:24;17.70;99.90
18041;DHT22;9145;48.588;9.250;2023-08-01T08:18:51;17.70;99.90
18041;DHT22;9145;48.588;9.250;2023-08-01T08:21:18;17.60;99.90
18041;DHT22;9145;48.588;9.250;2023-08-01T08:23:46;17.50;99.90
18041;DHT22;9145;48.588;9.250;2023-08-01T08:26:12;17.40;99.90
18041;DHT22;9145;48.588;9.250;2023-08-01T08:28:39;17.30;99.90
18041;DHT22;9145;48.588;9.250;2023-08-01T08:31:09;17.30;99.90
18041;DHT22;9145;48.588;9.250;2023-08-01T08:33:35;17.40;99.90
18041;DHT22;9145;48.588;9.250;2023-08-01T08:36:03;17.40;99.90
18041;DHT22;9145;48.588;9.250;2023-08-01T08:38:30;17.40;99.90
18041;DHT22;9145;48.588;9.250;2023-08-01T08:41:05;17.50;99.90
18041;DHT22;9145;48.588;9.250;2023-08-01T08:43:33;17.30;99.90
18041;DHT22;9145;48.588;9.250;2023-08-01T08:46:02;17.40;99.90
18041;DHT22;9145;48.588;9.250;2023-08-01T08:48:31;17.40;99.90
18041;DHT22;9145;48.588;9.250;2023-08-01T08:51:00;17.50;99.90
18041;DHT22;9145;48.588;9.250;2023-08-01T08:53:27;17.50;99.90
18041;DHT22;9145;48.588;9.250;2023-08-01T08:55:54;17.60;99.90
18041;DHT22;9145;48.588;9.250;2023-08-01T08:58:22;17.50;99.90
18041;DHT22;9145;48.588;9.250;2023-08-01T09:00:49;17.50;99.90
18041;DHT22;9145;48.588;9.250;2023-08-01T09:03:16;17.60;99.90
18041;DHT22;9145;48.588;9.250;2023-08-01T09:05:49;17.50;99.90
18041;DHT22;9145;48.588;9.250;2023-08-01T09:08:18;17.50;99.90
18041;DHT22;9145;48.588;9.250;2023-08-01T09:10:46;17.50;99.90
18041;DHT22;9145;48.588;9.250;2023-08-01T09:13:13;17.50;99.90
18041;DHT22;9145;48.588;9.250;2023-08-01T09:15:41;17.50;99.90
18041;DHT22;9145;48.588;9.250;2023-08-01T09:18:09;17.60;99.90
18041;DHT22;9145;48.588;9.250;2023-08-01T09:20:41;17.60;99.90
18041;DHT22;9145;48.588;9.250;2023-08-01T09:23:10;17.60;99.90
18041;DHT22;9145;48.588;9.250;2023-08-01T09:25:37;17.60;99.90
18041;DHT22;9145;48.588;9.250;2023-08-01T09:28:15;17.70;99.90
18041;DHT22;9145;48.588;9.250;2023-08-01T09:30:49;17.70;99.90
18041;DHT22;9145;48.588;9.250;2023-08-01T09:33:16;17.80;99.90
18041;DHT22;9145;48.588;9.250;2023-08-01T09:35:43;18.00;99.90
18041;DHT22;9145;48.588;9.250;2023-08-01T09:38:14;18.20;99.90
18041;DHT22;9145;48.588;9.250;2023-08-01T09:40:41;18.30;99.90
18041;DHT22;9145;48.588;9.250;2023-08-01T09:43:10;18.20;99.90
18041;DHT22;9145;48.588;9.250;2023-08-01T09:45:37;18.20;99.90
18041;DHT22;9145;48.588;9.250;2023-08-01T09:48:04;18.20;99.90
18041;DHT22;9145;48.588;9.250;2023-08-01T09:50:31;18.20;99.90
18041;DHT22;9145;48.588;9.250;2023-08-01T09:53:07;18.10;99.90
18041;DHT22;9145;48.588;9.250;2023-08-01T09:55:35;18.10;99.90
18041;DHT22;9145;48.588;9.250;2023-08-01T09:58:04;18.10;99.90
18041;DHT22;9145;48.588;9.250;2023-08-01T10:00:32;18.00;99.90
18041;DHT22;9145;48.588;9.250;2023-08-01T10:03:00;17.90;99.90
18041;DHT22;9145;48.588;9.250;2023-08-01T10:05:29;17.80;99.90
18041;DHT22;9145;48.588;9.250;2023-08-01T10:07:58;17.70;99.90
18041;DHT22;9145;48.588;9.250;2023-08-01T10:10:27;17.70;99.90
18041;DHT22;9145;48.588;9.250;2023-08-01T10:12:56;17.70;99.90
18041;DHT22;9145;48.588;9.250;2023-08-01T10:15:24;17.90;99.90
18041;DHT22;9145;48.588;9.250;2023-08-01T10:17:51;17.90;99.90
18041;DHT22;9145;48.588;9.250;2023-08-01T10:20:18;18.00;99.90
18041;DHT22;9145;48.588;9.250;2023-08-01T10:22:48;18.00;99.90
18041;DHT22;9145;48.588;9.250;2023-08-01T10:25:16;18.00;99.90
18041;DHT22;9145;48.588;9.250;2023-08-01T10:27:43;18.10;99.90
18041;DHT22;9145;48.588;9.250;2023-08-01T10:30:11;18.10;99.90
18041;DHT22;9145;48.588;9.250;2023-08-01T10:32:40;18.20;99.90
18041;DHT22;9145;48.588;9.250;2023-08-01T10:35:07;18.20;99.90
18041;DHT22;9145;48.588;9.250;2023-08-01T10:37:41;18.10;99.90
18041;DHT22;9145;48.588;9.250;2023-08-01T10:40:08;18.20;99.90
18041;DHT22;9145;48.588;9.250;2023-08-01T10:42:39;18.20;99.90
18041;DHT22;9145;48.588;9.250;2023-08-01T10:45:07;18.20;99.90
18041;DHT22;9145;48.588;9.250;2023-08-01T10:47:35;18.20;99.90
18041;DHT22;9145;48.588;9.250;2023-08-01T10:50:13;18.30;99.90
18041;DHT22;9145;48.588;9.250;2023-08-01T10:52:41;18.50;99.90
18041;DHT22;9145;48.588;9.250;2023-08-01T10:55:09;18.70;99.90
18041;DHT22;9145;48.588;9.250;2023-08-01T10:57:37;19.00;99.90
18041;DHT22;9145;48.588;9.250;2023-08-01T11:00:05;19.40;99.90
18041;DHT22;9145;48.588;9.250;2023-08-01T11:02:36;19.90;99.90
18041;DHT22;9145;48.588;9.250;2023-08-01T11:05:05;20.10;99.90
18041;DHT22;9145;48.588;9.250;2023-08-01T11:07:33;20.00;99.90
18041;DHT22;9145;48.588;9.250;2023-08-01T11:10:06;19.90;99.90
18041;DHT22;9145;48.588;9.250;2023-08-01T11:12:35;19.50;99.90
18041;DHT22;9145;48.588;9.250;2023-08-01T11:15:03;19.50;99.90
18041;DHT22;9145;48.588;9.250;2023-08-01T11:17:31;19.60;99.90
18041;DHT22;9145;48.588;9.250;2023-08-01T11:20:05;19.50;99.90
18041;DHT22;9145;48.588;9.250;2023-08-01T11:22:33;19.60;99.90
18041;DHT22;9145;48.588;9.250;2023-08-01T11:25:00;19.60;99.90
18041;DHT22;9145;48.588;9.250;2023-08-01T11:27:27;19.60;99.90
18041;DHT22;9145;48.588;9.250;2023-08-01T11:29:55;19.80;99.90
18041;DHT22;9145;48.588;9.250;2023-08-01T11:32:32;20.10;99.90
18041;DHT22;9145;48.588;9.250;2023-08-01T11:34:59;20.50;99.90
18041;DHT22;9145;48.588;9.250;2023-08-01T11:37:27;20.90;99.90
18041;DHT22;9145;48.588;9.250;2023-08-01T11:39:54;21.10;99.90
18041;DHT22;9145;48.588;9.250;2023-08-01T11:42:22;21.10;99.90
18041;DHT22;9145;48.588;9.250;2023-08-01T11:44:49;21.20;99.90
18041;DHT22;9145;48.588;9.250;2023-08-01T11:47:17;21.30;99.90
18041;DHT22;9145;48.588;9.250;2023-08-01T11:49:45;21.10;99.90
18041;DHT22;9145;48.588;9.250;2023-08-01T11:52:23;21.10;99.90
18041;DHT22;9145;48.588;9.250;2023-08-01T11:54:51;21.10;99.90
18041;DHT22;9145;48.588;9.250;2023-08-01T11:57:20;21.10;99.90
18041;DHT22;9145;48.588;9.250;2023-08-01T11:59:47;21.30;99.90
18041;DHT22;9145;48.588;9.250;2023-08-01T12:02:24;21.50;99.90
18041;DHT22;9145;48.588;9.250;2023-08-01T12:04:51;21.40;99.90
18041;DHT22;9145;48.588;9.250;2023-08-01T12:07:18;21.20;99.90
18041;DHT22;9145;48.588;9.250;2023-08-01T12:09:56;21.30;99.90
18041;DHT22;9145;48.588;9.250;2023-08-01T12:12:23;21.70;99.90
18041;DHT22;9145;48.588;9.250;2023-08-01T12:14:50;22.00;99.90
18041;DHT22;9145;48.588;9.250;2023-08-01T12:17:18;22.00;99.90
18041;DHT22;9145;48.588;9.250;2023-08-01T12:19:45;21.70;99.90
18041;DHT22;9145;48.588;9.250;2023-08-01T12:22:12;21.60;99.90
18041;DHT22;9145;48.588;9.250;2023-08-01T12:24:40;21.30;99.90
18041;DHT22;9145;48.588;9.250;2023-08-01T12:27:08;21.20;99.90
18041;DHT22;9145;48.588;9.250;2023-08-01T12:29:35;21.00;99.90
18041;DHT22;9145;48.588;9.250;2023-08-01T12:32:03;20.90;99.90
18041;DHT22;9145;48.588;9.250;2023-08-01T12:34:30;20.80;99.90
18041;DHT22;9145;48.588;9.250;2023-08-01T12:36:56;21.10;99.90
18041;DHT22;9145;48.588;9.250;2023-08-01T12:39:23;21.30;99.90
18041;DHT22;9145;48.588;9.250;2023-08-01T12:41:51;21.10;99.90
18041;DHT22;9145;48.588;9.250;2023-08-01T12:44:20;21.10;99.90
18041;DHT22;9145;48.588;9.250;2023-08-01T12:46:46;21.10;99.90
18041;DHT22;9145;48.588;9.250;2023-08-01T12:49:13;21.10;99.90
18041;DHT22;9145;48.588;9.250;2023-08-01T12:51:40;21.20;99.90
18041;DHT22;9145;48.588;9.250;2023-08-01T12:54:07;21.70;99.90
18041;DHT22;9145;48.588;9.250;2023-08-01T12:56:34;22.10;99.90
18041;DHT22;9145;48.588;9.250;2023-08-01T12:59:00;22.30;99.90
18041;DHT22;9145;48.588;9.250;2023-08-01T13:01:28;22.20;99.90
18041;DHT22;9145;48.588;9.250;2023-08-01T13:03:55;22.40;99.90
18041;DHT22;9145;48.588;9.250;2023-08-01T13:06:22;22.50;99.90
18041;DHT22;9145;48.588;9.250;2023-08-01T13:08:49;22.60;99.90
18041;DHT22;9145;48.588;9.250;2023-08-01T13:11:16;22.70;99.90
18041;DHT22;9145;48.588;9.250;2023-08-01T13:13:43;22.80;99.90
18041;DHT22;9145;48.588;9.250;2023-08-01T13:16:11;22.80;99.90
18041;DHT22;9145;48.588;9.250;2023-08-01T13:18:40;22.90;99.90
18041;DHT22;9145;48.588;9.250;2023-08-01T13:21:09;23.20;99.90
18041;DHT22;9145;48.588;9.250;2023-08-01T13:23:36;23.60;99.90
18041;DHT22;9145;48.588;9.250;2023-08-01T13:26:03;23.50;99.90
18041;DHT22;9145;48.588;9.250;2023-08-01T13:28:29;23.60;99.90
18041;DHT22;9145;48.588;9.250;2023-08-01T13:30:56;23.70;99.90
18041;DHT22;9145;48.588;9.250;2023-08-01T13:33:23;23.60;99.90
18041;DHT22;9145;48.588;9.250;2023-08-01T13:35:52;23.60;99.90
18041;DHT22;9145;48.588;9.250;2023-08-01T13:38:20;23.60;99.90
18041;DHT22;9145;48.588;9.250;2023-08-01T13:40:46;23.20;99.90
18041;DHT22;9145;48.588;9.250;2023-08-01T13:43:13;23.10;99.90
18041;DHT22;9145;48.588;9.250;2023-08-01T13:45:40;22.90;99.90
18041;DHT22;9145;48.588;9.250;2023-08-01T13:48:07;23.10;99.90
18041;DHT22;9145;48.588;9.250;2023-08-01T13:50:34;23.20;99.90
18041;DHT22;9145;48.588;9.250;2023-08-01T13:53:02;23.20;99.90
18041;DHT22;9145;48.588;9.250;2023-08-01T13:55:29;23.30;99.90
18041;DHT22;9145;48.588;9.250;2023-08-01T13:57:56;23.80;99.90
18041;DHT22;9145;48.588;9.250;2023-08-01T14:00:22;24.10;99.90
18041;DHT22;9145;48.588;9.250;2023-08-01T14:02:49;24.10;99.90
18041;DHT22;9145;48.588;9.250;2023-08-01T14:05:17;23.90;99.90
18041;DHT22;9145;48.588;9.250;2023-08-01T14:07:44;24.20;99.90
18041;DHT22;9145;48.588;9.250;2023-08-01T14:10:12;24.20;99.90
18041;DHT22;9145;48.588;9.250;2023-08-01T14:12:40;24.60;99.90
18041;DHT22;9145;48.588;9.250;2023-08-01T14:15:07;24.40;99.90
18041;DHT22;9145;48.588;9.250;2023-08-01T14:17:34;24.20;99.90
18041;DHT22;9145;48.588;9.250;2023-08-01T14:20:01;24.30;99.90
18041;DHT22;9145;48.588;9.250;2023-08-01T14:22:30;24.60;99.90
18041;DHT22;9145;48.588;9.250;2023-08-01T14:24:57;24.60;99.90
18041;DHT22;9145;48.588;9.250;2023-08-01T14:27:25;24.80;99.90
18041;DHT22;9145;48.588;9.250;2023-08-01T14:29:52;24.60;99.90
18041;DHT22;9145;48.588;9.250;2023-08-01T14:32:19;24.00;99.90
18041;DHT22;9145;48.588;9.250;2023-08-01T14:34:46;23.60;99.90
18041;DHT22;9145;48.588;9.250;2023-08-01T14:37:13;23.80;99.90
18041;DHT22;9145;48.588;9.250;2023-08-01T14:39:39;24.30;99.90
18041;DHT22;9145;48.588;9.250;2023-08-01T14:42:06;24.70;99.90
18041;DHT22;9145;48.588;9.250;2023-08-01T14:44:34;24.90;99.90
18041;DHT22;9145;48.588;9.250;2023-08-01T14:47:01;25.10;99.90
18041;DHT22;9145;48.588;9.250;2023-08-01T14:49:28;25.50;99.90
18041;DHT22;9145;48.588;9.250;2023-08-01T14:51:55;25.70;99.90
18041;DHT22;9145;48.588;9.250;2023-08-01T14:54:22;25.60;99.90
18041;DHT22;9145;48.588;9.250;2023-08-01T14:56:50;25.60;99.90
18041;DHT22;9145;48.588;9.250;2023-08-01T14:59:17;25.50;99.90
18041;DHT22;9145;48.588;9.250;2023-08-01T15:01:45;26.00;99.90
18041;DHT22;9145;48.588;9.250;2023-08-01T15:04:12;26.20;99.90
18041;DHT22;9145;48.588;9.250;2023-08-01T15:06:39;26.00;99.90
18041;DHT22;9145;48.588;9.250;2023-08-01T15:09:06;25.40;99.90
18041;DHT22;9145;48.588;9.250;2023-08-01T15:11:33;25.40;99.90
18041;DHT22;9145;48.588;9.250;2023-08-01T15:14:01;24.90;99.90
18041;DHT22;9145;48.588;9.250;2023-08-01T15:16:28;24.70;99.90
18041;DHT22;9145;48.588;9.250;2023-08-01T15:18:56;25.10;99.90
18041;DHT22;9145;48.588;9.250;2023-08-01T15:21:23;25.60;99.90
18041;DHT22;9145;48.588;9.250;2023-08-01T15:23:52;25.50;99.90
18041;DHT22;9145;48.588;9.250;2023-08-01T15:26:19;24.70;99.90
18041;DHT22;9145;48.588;9.250;2023-08-01T15:28:45;24.60;99.90
18041;DHT22;9145;48.588;9.250;2023-08-01T15:31:12;24.50;99.90
18041;DHT22;9145;48.588;9.250;2023-08-01T15:33:42;24.80;99.90
18041;DHT22;9145;48.588;9.250;2023-08-01T15:36:10;24.90;99.90
18041;DHT22;9145;48.588;9.250;2023-08-01T15:38:38;25.20;99.90
18041;DHT22;9145;48.588;9.250;2023-08-01T15:41:05;24.90;99.90
18041;DHT22;9145;48.588;9.250;2023-08-01T15:43:34;24.90;99.90
18041;DHT22;9145;48.588;9.250;2023-08-01T15:46:02;25.30;99.90